createdAt,value
2022-08-25T00:01:14.184Z,87.50
2022-08-25T00:05:23.180Z,87.60
2022-08-25T00:09:33.395Z,87.70
2022-08-25T00:13:45.039Z,90.00
2022-08-25T00:17:53.835Z,90.50
2022-08-25T00:22:03.840Z,90.70
2022-08-25T00:26:13.066Z,91.60
2022-08-25T00:30:21.810Z,91.70
2022-08-25T00:34:34.320Z,92.10
2022-08-25T00:38:44.941Z,92.50
2022-08-25T00:42:54.419Z,93.10
2022-08-25T00:47:04.746Z,93.70
2022-08-25T00:51:16.467Z,94.10
2022-08-25T00:55:44.464Z,94.80
2022-08-25T00:59:53.234Z,95.30
2022-08-25T01:04:01.918Z,95.90
2022-08-25T01:08:11.567Z,96.70
2022-08-25T01:12:22.861Z,97.40
2022-08-25T01:16:31.541Z,99.00
2022-08-25T01:20:40.119Z,99.90
2022-08-25T01:25:04.004Z,99.90
2022-08-25T01:29:21.807Z,99.90
2022-08-25T01:33:49.685Z,99.90
2022-08-25T01:37:58.348Z,99.90
2022-08-25T01:42:31.986Z,99.90
2022-08-25T01:46:40.624Z,99.90
2022-08-25T01:50:49.239Z,99.90
2022-08-25T01:54:57.918Z,99.90
2022-08-25T01:59:06.623Z,99.90
2022-08-25T02:03:36.018Z,99.90
2022-08-25T02:07:45.627Z,99.90
2022-08-25T02:11:54.321Z,99.90
2022-08-25T02:16:03.062Z,99.90
2022-08-25T02:20:12.185Z,99.90
2022-08-25T02:24:20.942Z,99.90
2022-08-25T02:28:29.558Z,99.90
2022-08-25T02:32:39.332Z,99.90
2022-08-25T02:36:48.019Z,99.90
2022-08-25T02:40:58.345Z,99.90
2022-08-25T02:45:07.800Z,99.90
2022-08-25T02:49:16.601Z,99.90
2022-08-25T02:53:25.214Z,99.90
2022-08-25T02:57:33.957Z,99.90
2022-08-25T03:01:42.658Z,99.90
2022-08-25T03:05:51.280Z,99.90
2022-08-25T03:09:59.971Z,99.90
2022-08-25T03:14:10.902Z,99.90
2022-08-25T03:18:19.507Z,99.90
2022-08-25T03:22:28.112Z,99.90
2022-08-25T03:26:56.367Z,99.90
2022-08-25T03:31:05.444Z,99.90
2022-08-25T03:35:14.404Z,99.90
2022-08-25T03:39:25.652Z,99.90
2022-08-25T03:43:34.259Z,99.90
2022-08-25T03:48:02.281Z,99.90
2022-08-25T03:52:10.952Z,99.90
2022-08-25T03:56:20.119Z,99.90
2022-08-25T04:00:28.739Z,99.90
2022-08-25T04:04:37.536Z,99.90
2022-08-25T04:08:46.232Z,99.90
2022-08-25T04:12:56.007Z,99.90
2022-08-25T04:17:05.459Z,99.90
2022-08-25T04:21:15.002Z,99.90
2022-08-25T04:25:23.625Z,99.90
2022-08-25T04:29:32.674Z,99.90
2022-08-25T04:33:42.441Z,99.90
2022-08-25T04:37:51.149Z,99.90
2022-08-25T04:42:00.643Z,99.90
2022-08-25T04:46:12.738Z,99.90
2022-08-25T04:50:21.352Z,99.90
2022-08-25T04:54:30.020Z,99.90
2022-08-25T04:58:41.633Z,99.90
2022-08-25T05:02:50.418Z,99.90
2022-08-25T05:06:59.360Z,99.90
2022-08-25T05:11:09.201Z,99.90
2022-08-25T05:15:36.227Z,99.90
2022-08-25T05:19:45.003Z,99.90
2022-08-25T05:23:57.630Z,99.90
2022-08-25T05:28:06.856Z,99.90
2022-08-25T05:32:15.616Z,99.90
2022-08-25T05:36:45.233Z,99.90
2022-08-25T05:41:03.031Z,99.90
2022-08-25T05:45:15.840Z,99.90
2022-08-25T05:49:22.697Z,99.90
2022-08-25T05:53:34.090Z,99.90
2022-08-25T05:57:43.138Z,99.90
2022-08-25T06:02:10.129Z,99.90
2022-08-25T06:06:18.806Z,99.90
2022-08-25T06:10:28.264Z,99.90
2022-08-25T06:14:37.876Z,99.90
2022-08-25T06:18:46.726Z,99.90
2022-08-25T06:22:55.772Z,99.90
2022-08-25T06:27:04.692Z,99.90
2022-08-25T06:31:13.352Z,99.90
2022-08-25T06:35:22.951Z,99.90
2022-08-25T06:39:31.667Z,99.90
2022-08-25T06:43:48.001Z,99.90
2022-08-25T06:47:54.735Z,99.90
2022-08-25T06:52:06.695Z,99.90
2022-08-25T06:56:15.942Z,99.90
2022-08-25T07:00:30.609Z,99.90
2022-08-25T07:04:36.454Z,99.90
2022-08-25T07:08:45.425Z,99.90
2022-08-25T07:12:54.042Z,99.90
2022-08-25T07:17:02.655Z,99.90
2022-08-25T07:21:14.933Z,99.90
2022-08-25T07:25:23.878Z,99.90
2022-08-25T07:29:34.077Z,99.90
2022-08-25T07:33:44.749Z,99.90
2022-08-25T07:37:59.747Z,99.90
2022-08-25T07:42:11.929Z,99.90
2022-08-25T07:46:20.195Z,99.90
2022-08-25T07:50:31.253Z,99.90
2022-08-25T07:54:39.853Z,99.90
2022-08-25T07:58:48.999Z,99.90
2022-08-25T08:02:59.137Z,99.90
2022-08-25T08:07:12.095Z,99.90
2022-08-25T08:11:20.871Z,99.90
2022-08-25T08:15:32.397Z,99.90
2022-08-25T08:19:44.852Z,99.90
2022-08-25T08:23:58.153Z,99.90
2022-08-25T08:28:03.183Z,99.90
2022-08-25T08:32:13.500Z,99.90
2022-08-25T08:36:25.476Z,99.90
2022-08-25T08:40:36.222Z,99.90
2022-08-25T08:44:49.647Z,99.90
2022-08-25T08:49:04.346Z,99.90
2022-08-25T08:53:24.663Z,99.90
2022-08-25T08:57:36.425Z,99.90
2022-08-25T09:01:54.324Z,99.90
2022-08-25T09:06:06.808Z,99.90
2022-08-25T09:10:17.477Z,99.90
2022-08-25T09:14:53.886Z,99.90
2022-08-25T09:19:03.100Z,98.60
2022-08-25T09:23:37.502Z,96.90
2022-08-25T09:28:04.415Z,96.00
2022-08-25T09:32:15.133Z,96.60
2022-08-25T09:36:24.771Z,95.60
2022-08-25T09:40:46.217Z,94.30
2022-08-25T09:44:55.216Z,92.30
2022-08-25T09:49:16.480Z,90.10
2022-08-25T09:53:25.157Z,87.80
2022-08-25T09:57:45.416Z,84.70
2022-08-25T10:01:58.249Z,85.20
2022-08-25T10:06:13.180Z,81.80
2022-08-25T10:10:27.435Z,78.60
2022-08-25T10:14:44.293Z,77.40
2022-08-25T10:19:15.625Z,74.00
2022-08-25T10:23:27.290Z,71.60
2022-08-25T10:27:56.731Z,71.70
2022-08-25T10:32:14.701Z,70.50
2022-08-25T10:36:26.371Z,68.10
2022-08-25T10:40:53.762Z,64.80
2022-08-25T10:45:44.232Z,62.30
2022-08-25T10:49:56.246Z,63.40
2022-08-25T10:54:21.048Z,62.40
2022-08-25T10:59:07.196Z,65.10
2022-08-25T11:03:21.372Z,61.10
2022-08-25T11:07:43.646Z,59.40
2022-08-25T11:12:07.249Z,58.00
2022-08-25T11:16:25.497Z,57.90
2022-08-25T11:20:37.159Z,58.70
2022-08-25T11:24:49.649Z,54.80
2022-08-25T11:29:11.996Z,55.30
2022-08-25T11:33:23.237Z,55.40
2022-08-25T11:37:33.894Z,54.50
2022-08-25T11:41:45.678Z,56.40
2022-08-25T11:46:23.091Z,54.10
2022-08-25T11:50:36.668Z,53.90
2022-08-25T11:54:46.299Z,52.80
2022-08-25T11:59:14.327Z,55.40
2022-08-25T12:03:45.092Z,55.90
2022-08-25T12:08:14.876Z,53.60
2022-08-25T12:12:32.657Z,53.80
2022-08-25T12:16:44.618Z,54.60
2022-08-25T12:20:59.972Z,53.30
2022-08-25T12:25:23.645Z,50.40
2022-08-25T12:29:44.633Z,50.10
2022-08-25T12:34:05.200Z,50.80
2022-08-25T12:38:22.259Z,49.60
2022-08-25T12:42:39.804Z,48.10
2022-08-25T12:46:49.987Z,50.60
2022-08-25T12:51:13.733Z,51.00
2022-08-25T12:55:25.159Z,48.00
2022-08-25T12:59:39.787Z,46.40
2022-08-25T13:04:25.049Z,47.80
2022-08-25T13:09:00.959Z,49.30
2022-08-25T13:13:37.793Z,48.60
2022-08-25T13:17:47.209Z,48.70
2022-08-25T13:21:59.057Z,46.30
2022-08-25T13:26:08.398Z,46.40
2022-08-25T13:30:27.410Z,44.10
2022-08-25T13:34:42.882Z,44.70
2022-08-25T13:38:52.058Z,46.40
2022-08-25T13:43:03.570Z,43.40
2022-08-25T13:47:16.594Z,45.10
2022-08-25T13:51:49.194Z,44.60
2022-08-25T13:56:00.643Z,43.70
2022-08-25T14:00:11.909Z,41.80
2022-08-25T14:04:51.168Z,42.40
2022-08-25T14:09:04.194Z,42.90
2022-08-25T14:13:18.924Z,38.80
2022-08-25T14:17:39.873Z,42.10
2022-08-25T14:21:40.959Z,43.40
2022-08-25T14:25:55.447Z,43.70
2022-08-25T14:30:04.397Z,39.10
2022-08-25T14:34:18.872Z,39.70
2022-08-25T14:38:29.428Z,40.30
2022-08-25T14:42:38.906Z,38.60
2022-08-25T14:46:57.206Z,40.00
2022-08-25T14:51:07.330Z,41.70
2022-08-25T14:55:17.422Z,39.10
2022-08-25T14:59:26.491Z,40.60
2022-08-25T15:03:38.929Z,41.30
2022-08-25T15:08:05.770Z,41.00
2022-08-25T15:12:26.019Z,40.60
2022-08-25T15:16:35.188Z,43.30
2022-08-25T15:20:44.345Z,43.40
2022-08-25T15:24:53.026Z,42.70
2022-08-25T15:29:01.811Z,40.70
2022-08-25T15:33:10.780Z,40.10
2022-08-25T15:37:19.538Z,39.90
2022-08-25T15:41:29.454Z,39.00
2022-08-25T15:45:38.359Z,40.00
2022-08-25T15:49:47.265Z,40.60
2022-08-25T15:53:57.012Z,40.80
2022-08-25T15:58:06.590Z,44.10
2022-08-25T16:02:18.001Z,43.70
2022-08-25T16:06:27.895Z,44.30
2022-08-25T16:10:42.198Z,43.50
2022-08-25T16:14:51.182Z,43.30
2022-08-25T16:19:01.476Z,44.90
2022-08-25T16:23:10.282Z,44.70
2022-08-25T16:27:19.983Z,44.70
2022-08-25T16:31:28.931Z,41.90
2022-08-25T16:35:37.582Z,44.50
2022-08-25T16:39:49.396Z,41.40
2022-08-25T16:43:58.482Z,40.20
2022-08-25T16:48:07.597Z,42.70
2022-08-25T16:52:35.647Z,44.50
2022-08-25T16:56:44.475Z,43.70
2022-08-25T17:00:53.100Z,45.30
2022-08-25T17:05:03.207Z,43.40
2022-08-25T17:09:17.367Z,43.90
2022-08-25T17:13:25.453Z,43.90
2022-08-25T17:17:36.274Z,42.90
2022-08-25T17:21:50.018Z,44.90
2022-08-25T17:25:58.755Z,45.20
2022-08-25T17:30:08.797Z,42.90
2022-08-25T17:34:23.088Z,41.30
2022-08-25T17:38:33.225Z,42.40
2022-08-25T17:42:42.001Z,43.20
2022-08-25T17:46:50.855Z,43.10
2022-08-25T17:51:01.442Z,42.80
2022-08-25T17:55:10.981Z,41.70
2022-08-25T17:59:21.073Z,41.50
2022-08-25T18:03:30.918Z,42.60
2022-08-25T18:07:39.679Z,42.80
2022-08-25T18:11:50.431Z,43.60
2022-08-25T18:15:59.866Z,46.50
2022-08-25T18:20:11.373Z,48.90
2022-08-25T18:24:20.491Z,48.80
2022-08-25T18:28:32.137Z,49.50
2022-08-25T18:32:40.777Z,50.10
2022-08-25T18:36:50.013Z,50.30
2022-08-25T18:41:01.982Z,50.60
2022-08-25T18:45:12.330Z,50.90
2022-08-25T18:49:21.407Z,51.60
2022-08-25T18:53:37.091Z,51.60
2022-08-25T18:57:43.467Z,52.00
2022-08-25T19:01:53.596Z,52.10
2022-08-25T19:06:02.724Z,52.50
2022-08-25T19:10:11.659Z,52.30
2022-08-25T19:14:20.958Z,52.70
2022-08-25T19:18:30.253Z,52.90
2022-08-25T19:22:41.957Z,53.20
2022-08-25T19:26:54.162Z,53.80
2022-08-25T19:31:01.475Z,54.30
2022-08-25T19:35:30.443Z,54.50
2022-08-25T19:39:39.062Z,54.70
2022-08-25T19:43:56.469Z,55.20
2022-08-25T19:48:01.775Z,55.40
2022-08-25T19:52:12.273Z,56.30
2022-08-25T19:56:21.443Z,56.70
2022-08-25T20:00:33.915Z,57.00
2022-08-25T20:04:49.745Z,57.50
2022-08-25T20:09:00.299Z,58.10
2022-08-25T20:13:08.635Z,58.50
2022-08-25T20:17:24.685Z,59.40
2022-08-25T20:21:30.877Z,60.40
2022-08-25T20:25:39.593Z,60.30
2022-08-25T20:29:50.745Z,61.30
2022-08-25T20:34:02.922Z,62.30
2022-08-25T20:38:10.486Z,63.80
2022-08-25T20:42:19.908Z,64.40
2022-08-25T20:46:28.559Z,64.50
2022-08-25T20:50:39.924Z,65.70
2022-08-25T20:55:00.675Z,66.80
2022-08-25T20:59:10.428Z,67.00
2022-08-25T21:03:20.270Z,67.80
2022-08-25T21:07:28.943Z,68.50
2022-08-25T21:11:39.898Z,69.30
2022-08-25T21:15:48.889Z,70.00
2022-08-25T21:19:57.506Z,71.20
2022-08-25T21:24:09.901Z,72.60
2022-08-25T21:28:17.710Z,73.30
2022-08-25T21:32:27.823Z,74.30
2022-08-25T21:36:36.433Z,75.60
2022-08-25T21:40:45.220Z,76.40
2022-08-25T21:44:54.038Z,78.10
2022-08-25T21:49:06.150Z,79.90
2022-08-25T21:53:14.043Z,81.20
2022-08-25T21:57:23.679Z,83.10
2022-08-25T22:01:32.537Z,85.40
2022-08-25T22:05:41.671Z,88.60
2022-08-25T22:09:51.874Z,91.20
2022-08-25T22:14:02.413Z,92.50
2022-08-25T22:18:11.034Z,93.80
2022-08-25T22:22:21.019Z,96.00
2022-08-25T22:26:31.607Z,98.50
2022-08-25T22:30:40.543Z,99.90
2022-08-25T22:34:49.584Z,99.90
2022-08-25T22:38:59.318Z,99.90
2022-08-25T22:43:10.853Z,99.90
2022-08-25T22:47:19.677Z,99.90
2022-08-25T22:51:33.314Z,99.90
2022-08-25T22:55:44.161Z,99.90
2022-08-25T22:59:55.575Z,99.90
2022-08-25T23:04:06.217Z,99.90
2022-08-25T23:08:15.505Z,99.90
2022-08-25T23:12:26.202Z,99.90
2022-08-25T23:16:56.022Z,99.90
2022-08-25T23:21:24.145Z,99.90
2022-08-25T23:25:32.752Z,99.90
2022-08-25T23:29:43.361Z,99.90
2022-08-25T23:33:52.413Z,99.90
2022-08-25T23:38:20.333Z,99.90
2022-08-25T23:42:29.015Z,99.90
2022-08-25T23:46:37.628Z,99.90
2022-08-25T23:50:48.955Z,99.90
2022-08-25T23:54:59.298Z,99.90
2022-08-25T23:59:09.324Z,99.90
